Time;durP1;ratioP1;P1;durP2;ratioP2;P2;SDS_P1;SDS_P2;PMS_P1;PMS_P2;Temp;Humidity;BMP_temperature;BMP_pressure;BME280_temperature;BME280_humidity;BME280_pressure;Samples;Min_cycle;Max_cycle;Signal;HPM_P1;HPM_P2
2022/08/15 00:01:26;;;;;;;10.80;4.63;;;;;;;;;;5053758;28;20033;-72
2022/08/15 00:03:54;;;;;;;15.27;4.63;;;;;;;;;;5053475;28;20029;-72
2022/08/15 00:06:23;;;;;;;15.23;4.68;;;;;;;;;;5053259;28;20092;-72
2022/08/15 00:08:51;;;;;;;11.75;4.10;;;;;;;;;;5053553;28;20460;-72
2022/08/15 00:11:19;;;;;;;11.93;4.68;;;;;;;;;;5052043;28;20024;-71
2022/08/15 00:13:46;;;;;;;10.77;5.00;;;;;;;;;;5053360;28;20026;-73
2022/08/15 00:16:16;;;;;;;15.18;4.72;;;;;;;;;;5052908;28;20484;-72
2022/08/15 00:18:42;;;;;;;9.18;4.03;;;;;;;;;;5053207;28;20485;-73
2022/08/15 00:21:10;;;;;;;11.88;4.45;;;;;;;;;;5053273;28;20040;-73
2022/08/15 00:23:39;;;;;;;11.55;3.97;;;;;;;;;;5053156;28;20025;-72
2022/08/15 00:26:05;;;;;;;9.30;3.88;;;;;;;;;;5052994;28;20404;-74
2022/08/15 00:28:31;;;;;;;11.52;4.57;;;;;;;;;;5053117;28;20028;-73
2022/08/15 00:30:57;;;;;;;8.95;4.00;;;;;;;;;;5053078;28;20495;-73
2022/08/15 00:33:24;;;;;;;12.02;4.32;;;;;;;;;;5052860;28;20482;-73
2022/08/15 00:35:51;;;;;;;13.20;4.40;;;;;;;;;;5052634;28;20029;-73
2022/08/15 00:38:21;;;;;;;15.15;4.28;;;;;;;;;;5051644;28;20025;-71
2022/08/15 00:43:39;;;;;;;16.42;4.15;;;;;;;;;;5052673;28;20052;-72
2022/08/15 00:46:06;;;;;;;12.55;4.05;;;;;;;;;;5052456;28;20013;-72
2022/08/15 00:48:41;;;;;;;11.98;3.92;;;;;;;;;;5052782;28;20437;-72
2022/08/15 00:51:10;;;;;;;9.45;3.58;;;;;;;;;;5052753;28;20489;-72
2022/08/15 00:53:36;;;;;;;14.90;4.53;;;;;;;;;;5052579;28;20417;-72
2022/08/15 00:56:03;;;;;;;11.93;3.95;;;;;;;;;;5052316;28;20039;-71
2022/08/15 00:58:29;;;;;;;8.00;3.58;;;;;;;;;;5052618;28;20371;-71
2022/08/15 01:00:55;;;;;;;13.20;4.10;;;;;;;;;;5051390;28;20108;-73
2022/08/15 01:03:26;;;;;;;10.70;3.83;;;;;;;;;;5051372;28;20116;-71
2022/08/15 01:05:54;;;;;;;9.77;3.63;;;;;;;;;;5051016;28;20389;-73
2022/08/15 01:08:23;;;;;;;11.45;3.33;;;;;;;;;;5052515;28;20036;-72
2022/08/15 01:10:49;;;;;;;11.05;3.80;;;;;;;;;;5057066;28;20021;-73
2022/08/15 01:13:15;;;;;;;10.38;3.33;;;;;;;;;;5052896;28;20086;-73
2022/08/15 01:15:41;;;;;;;5.15;3.28;;;;;;;;;;5053943;28;20039;-71
2022/08/15 01:18:07;;;;;;;10.30;3.58;;;;;;;;;;5052553;28;20033;-72
2022/08/15 01:20:34;;;;;;;9.07;3.70;;;;;;;;;;5053009;28;20101;-72
2022/08/15 01:23:19;;;;;;;9.32;3.25;;;;;;;;;;5052972;28;20482;-71
2022/08/15 01:25:47;;;;;;;17.27;3.55;;;;;;;;;;5052168;28;20155;-72
2022/08/15 01:28:13;;;;;;;14.45;4.10;;;;;;;;;;5053052;28;20040;-74
2022/08/15 01:30:41;;;;;;;18.45;4.28;;;;;;;;;;5053503;28;20029;-72
2022/08/15 01:33:07;;;;;;;14.30;3.15;;;;;;;;;;5053262;28;20500;-73
2022/08/15 01:35:34;;;;;;;12.43;3.30;;;;;;;;;;5052752;28;20179;-71
2022/08/15 01:38:03;;;;;;;12.38;3.47;;;;;;;;;;5053192;28;20111;-73
2022/08/15 01:40:34;;;;;;;10.15;3.35;;;;;;;;;;5053211;28;20485;-72
2022/08/15 01:43:01;;;;;;;11.45;3.38;;;;;;;;;;5052868;28;20021;-71
2022/08/15 01:45:28;;;;;;;18.02;3.72;;;;;;;;;;5052477;28;20021;-71
2022/08/15 01:47:59;;;;;;;23.42;4.57;;;;;;;;;;5053057;28;20021;-73
2022/08/15 01:50:30;;;;;;;11.02;3.88;;;;;;;;;;5052942;28;20031;-71
2022/08/15 01:53:14;;;;;;;11.93;3.58;;;;;;;;;;5052932;28;20029;-72
2022/08/15 01:55:48;;;;;;;13.70;3.40;;;;;;;;;;5053103;28;20374;-72
2022/08/15 01:58:14;;;;;;;5.70;3.00;;;;;;;;;;5055313;28;20086;-72
2022/08/15 02:00:48;;;;;;;8.85;2.92;;;;;;;;;;5051432;28;20033;-73
2022/08/15 02:03:14;;;;;;;10.05;3.42;;;;;;;;;;5052672;28;20017;-71
2022/08/15 02:05:40;;;;;;;10.00;3.40;;;;;;;;;;5050627;28;20390;-73
2022/08/15 02:08:06;;;;;;;16.02;5.75;;;;;;;;;;5050933;28;20029;-73
2022/08/15 02:10:32;;;;;;;13.45;5.57;;;;;;;;;;5052257;28;20036;-74
2022/08/15 02:12:58;;;;;;;10.55;4.13;;;;;;;;;;5051686;28;20086;-73
2022/08/15 02:15:24;;;;;;;14.52;4.43;;;;;;;;;;5051779;28;20029;-72
2022/08/15 02:17:50;;;;;;;11.00;3.67;;;;;;;;;;5052354;28;20269;-72
2022/08/15 02:20:16;;;;;;;11.13;3.72;;;;;;;;;;5051995;28;20421;-73
2022/08/15 02:22:42;;;;;;;11.23;3.92;;;;;;;;;;5051833;28;20032;-73
2022/08/15 02:25:09;;;;;;;13.65;3.60;;;;;;;;;;5058500;28;20043;-73
2022/08/15 02:27:36;;;;;;;12.35;4.10;;;;;;;;;;5059346;28;20025;-72
2022/08/15 02:30:08;;;;;;;13.65;4.05;;;;;;;;;;5052425;28;20021;-74
2022/08/15 02:32:38;;;;;;;9.65;4.15;;;;;;;;;;5052603;28;20057;-74
2022/08/15 02:35:06;;;;;;;14.80;4.50;;;;;;;;;;5052549;28;20159;-73
2022/08/15 02:37:32;;;;;;;8.13;3.50;;;;;;;;;;5050149;28;20032;-74
2022/08/15 02:39:59;;;;;;;15.88;3.58;;;;;;;;;;5051863;28;20036;-73
2022/08/15 02:42:25;;;;;;;14.15;3.67;;;;;;;;;;5050403;28;20152;-73
2022/08/15 02:44:51;;;;;;;9.98;3.45;;;;;;;;;;5051874;28;20021;-72
2022/08/15 02:47:18;;;;;;;8.65;3.45;;;;;;;;;;5051540;28;20036;-73
2022/08/15 02:49:45;;;;;;;17.02;3.35;;;;;;;;;;5051904;28;20385;-72
2022/08/15 02:52:12;;;;;;;9.50;3.42;;;;;;;;;;5051797;28;20028;-72
2022/08/15 02:54:38;;;;;;;12.65;4.85;;;;;;;;;;5052272;28;20045;-72
2022/08/15 02:57:05;;;;;;;19.00;3.70;;;;;;;;;;5051729;28;20025;-73
2022/08/15 02:59:31;;;;;;;12.32;3.92;;;;;;;;;;5051748;28;20525;-72
2022/08/15 03:01:57;;;;;;;14.18;5.28;;;;;;;;;;5051646;28;20075;-72
2022/08/15 03:04:24;;;;;;;9.00;4.40;;;;;;;;;;5051775;28;20532;-72
2022/08/15 03:06:53;;;;;;;14.00;7.03;;;;;;;;;;5049884;28;20021;-72
2022/08/15 03:09:19;;;;;;;15.20;7.68;;;;;;;;;;5051448;28;20025;-75
2022/08/15 03:11:45;;;;;;;12.82;6.65;;;;;;;;;;5051722;28;20605;-72
2022/08/15 03:14:13;;;;;;;16.55;4.75;;;;;;;;;;5051393;28;20067;-73
2022/08/15 03:16:42;;;;;;;10.77;4.47;;;;;;;;;;5051280;28;20044;-73
2022/08/15 03:19:08;;;;;;;9.07;3.75;;;;;;;;;;5051589;28;20599;-72
2022/08/15 03:21:35;;;;;;;13.85;4.20;;;;;;;;;;5053478;28;20025;-72
2022/08/15 03:24:02;;;;;;;13.18;4.45;;;;;;;;;;5056033;28;20107;-75
2022/08/15 03:26:28;;;;;;;9.98;4.10;;;;;;;;;;5057223;28;20380;-74
2022/08/15 03:28:54;;;;;;;10.60;4.30;;;;;;;;;;5055138;28;20390;-73
2022/08/15 03:31:20;;;;;;;13.07;4.63;;;;;;;;;;5055121;28;20021;-73
2022/08/15 03:33:47;;;;;;;15.18;6.53;;;;;;;;;;5055187;28;20025;-72
2022/08/15 03:36:14;;;;;;;12.95;4.32;;;;;;;;;;5054697;28;20378;-73
2022/08/15 03:38:40;;;;;;;15.65;4.10;;;;;;;;;;5060650;28;20025;-73
2022/08/15 03:41:10;;;;;;;11.25;6.32;;;;;;;;;;5066223;28;20021;-73
2022/08/15 03:43:37;;;;;;;14.15;6.30;;;;;;;;;;5065434;28;20028;-72
2022/08/15 03:46:05;;;;;;;15.77;5.53;;;;;;;;;;5064673;28;20469;-72
2022/08/15 03:48:32;;;;;;;12.18;4.90;;;;;;;;;;5065290;28;20104;-72
2022/08/15 03:50:59;;;;;;;11.52;4.30;;;;;;;;;;5063733;28;20597;-73
2022/08/15 03:53:27;;;;;;;14.57;4.00;;;;;;;;;;5053437;28;20485;-73
2022/08/15 03:55:53;;;;;;;16.17;5.88;;;;;;;;;;5054564;28;20060;-73
2022/08/15 03:58:19;;;;;;;13.25;4.70;;;;;;;;;;5054634;28;20068;-74
2022/08/15 04:00:47;;;;;;;9.20;3.90;;;;;;;;;;5054877;28;20056;-74
2022/08/15 04:03:15;;;;;;;12.77;5.03;;;;;;;;;;5057168;28;20519;-72
2022/08/15 04:05:43;;;;;;;16.33;5.43;;;;;;;;;;5057257;28;20025;-73
2022/08/15 04:08:10;;;;;;;17.55;6.65;;;;;;;;;;5054986;28;20089;-71
2022/08/15 04:10:36;;;;;;;12.90;4.95;;;;;;;;;;5056463;28;20028;-72
2022/08/15 04:13:03;;;;;;;11.88;5.55;;;;;;;;;;5053840;28;20021;-73
2022/08/15 04:15:30;;;;;;;12.35;4.70;;;;;;;;;;5053595;28;20112;-72
2022/08/15 04:17:56;;;;;;;12.25;4.70;;;;;;;;;;5055351;28;20029;-73
2022/08/15 04:20:22;;;;;;;16.83;7.22;;;;;;;;;;5053626;28;20027;-74
2022/08/15 04:22:49;;;;;;;18.88;8.77;;;;;;;;;;5054298;28;20013;-76
2022/08/15 04:25:18;;;;;;;15.90;6.97;;;;;;;;;;5054768;28;20025;-73
2022/08/15 04:27:45;;;;;;;23.42;8.90;;;;;;;;;;5054744;28;20394;-75
2022/08/15 04:30:12;;;;;;;14.70;5.18;;;;;;;;;;5054535;28;20017;-74
2022/08/15 04:32:39;;;;;;;10.85;6.88;;;;;;;;;;5053976;28;20505;-74
2022/08/15 04:35:08;;;;;;;12.20;4.93;;;;;;;;;;5072702;22;20041;-78
2022/08/15 04:37:36;;;;;;;9.60;4.15;;;;;;;;;;5064054;28;20089;-78
2022/08/15 04:40:02;;;;;;;12.27;4.22;;;;;;;;;;5040434;28;20082;-78
2022/08/15 04:42:28;;;;;;;9.43;3.90;;;;;;;;;;5058259;28;20021;-81
2022/08/15 04:44:54;;;;;;;10.95;5.13;;;;;;;;;;5042861;28;20116;-79
2022/08/15 04:47:21;;;;;;;9.02;4.80;;;;;;;;;;5037422;28;20029;-77
2022/08/15 04:49:47;;;;;;;11.25;4.18;;;;;;;;;;5068138;28;20021;-79
2022/08/15 04:52:15;;;;;;;12.80;4.05;;;;;;;;;;5058799;28;20081;-78
2022/08/15 04:54:41;;;;;;;15.13;4.18;;;;;;;;;;5077954;28;20031;-81
2022/08/15 04:57:08;;;;;;;10.73;4.18;;;;;;;;;;5061356;28;20031;-80
2022/08/15 04:59:36;;;;;;;17.52;4.25;;;;;;;;;;5060880;28;20044;-77
2022/08/15 05:02:02;;;;;;;14.60;4.20;;;;;;;;;;5043901;28;20029;-77
2022/08/15 05:04:28;;;;;;;13.73;4.75;;;;;;;;;;5056275;28;20025;-75
2022/08/15 05:06:54;;;;;;;17.10;6.25;;;;;;;;;;5056510;28;20052;-76
2022/08/15 05:09:20;;;;;;;12.38;5.05;;;;;;;;;;5070097;28;20020;-76
2022/08/15 05:11:46;;;;;;;10.93;4.80;;;;;;;;;;5039174;28;20025;-76
2022/08/15 05:14:12;;;;;;;10.65;4.80;;;;;;;;;;5057816;28;20440;-77
2022/08/15 05:16:38;;;;;;;19.88;10.70;;;;;;;;;;5039461;28;20025;-76
2022/08/15 05:19:04;;;;;;;22.48;8.82;;;;;;;;;;5058913;28;20048;-76
2022/08/15 05:21:30;;;;;;;11.50;5.55;;;;;;;;;;5057813;28;20017;-76
2022/08/15 05:23:56;;;;;;;8.05;4.97;;;;;;;;;;5055981;28;20029;-76
2022/08/15 05:26:22;;;;;;;16.25;5.43;;;;;;;;;;5062079;28;20035;-75
2022/08/15 05:28:48;;;;;;;8.15;5.22;;;;;;;;;;5061537;28;20032;-78
2022/08/15 05:31:14;;;;;;;15.70;7.43;;;;;;;;;;5060902;28;20025;-76
2022/08/15 05:33:42;;;;;;;13.60;5.78;;;;;;;;;;5058385;28;20040;-76
2022/08/15 05:36:08;;;;;;;11.07;5.90;;;;;;;;;;5058300;28;20028;-75
2022/08/15 05:38:40;;;;;;;16.33;5.57;;;;;;;;;;5057848;28;20028;-76
2022/08/15 05:41:24;;;;;;;14.00;5.70;;;;;;;;;;5056175;28;20103;-75
2022/08/15 05:44:16;;;;;;;11.55;6.78;;;;;;;;;;5053238;28;20021;-76
2022/08/15 05:46:42;;;;;;;17.15;5.50;;;;;;;;;;5052507;28;20032;-75
2022/08/15 05:49:09;;;;;;;14.73;5.03;;;;;;;;;;5053670;28;20025;-76
2022/08/15 05:51:47;;;;;;;17.08;6.65;;;;;;;;;;5036075;28;20449;-73
2022/08/15 05:54:28;;;;;;;18.65;6.65;;;;;;;;;;5040164;28;20106;-77
2022/08/15 05:57:05;;;;;;;13.73;5.03;;;;;;;;;;5054624;28;20053;-74
2022/08/15 05:59:35;;;;;;;13.82;5.78;;;;;;;;;;5053605;28;20029;-74
2022/08/15 06:02:07;;;;;;;13.40;5.32;;;;;;;;;;5053101;28;20032;-76
2022/08/15 06:04:53;;;;;;;12.85;6.18;;;;;;;;;;5052791;28;20020;-74
2022/08/15 06:07:20;;;;;;;19.77;6.35;;;;;;;;;;5053988;28;20012;-75
2022/08/15 06:09:51;;;;;;;18.25;6.07;;;;;;;;;;5055788;28;20122;-78
2022/08/15 06:12:26;;;;;;;9.48;5.45;;;;;;;;;;5054063;28;20043;-77
2022/08/15 06:14:55;;;;;;;11.45;6.05;;;;;;;;;;5054112;28;20056;-76
2022/08/15 06:17:24;;;;;;;15.95;6.40;;;;;;;;;;5053362;28;20124;-76
2022/08/15 06:19:51;;;;;;;17.35;6.30;;;;;;;;;;5054894;28;20056;-76
2022/08/15 06:22:39;;;;;;;18.65;6.78;;;;;;;;;;5037322;28;20116;-76
2022/08/15 06:25:23;;;;;;;15.13;6.10;;;;;;;;;;5035710;28;20032;-80
2022/08/15 06:27:57;;;;;;;16.75;8.40;;;;;;;;;;5053772;28;20020;-76
2022/08/15 06:30:30;;;;;;;17.75;5.70;;;;;;;;;;5053233;28;20025;-75
2022/08/15 06:33:02;;;;;;;12.63;6.47;;;;;;;;;;5053400;28;20375;-74
2022/08/15 06:35:32;;;;;;;15.35;5.90;;;;;;;;;;5052533;28;20057;-75
2022/08/15 06:37:58;;;;;;;14.85;7.85;;;;;;;;;;5053625;28;20099;-75
2022/08/15 06:40:28;;;;;;;23.00;7.15;;;;;;;;;;5054168;28;20021;-79
2022/08/15 06:42:55;;;;;;;19.15;5.85;;;;;;;;;;5036003;28;20075;-74
2022/08/15 06:45:33;;;;;;;13.55;6.18;;;;;;;;;;5053967;28;20049;-76
2022/08/15 06:48:05;;;;;;;18.27;6.15;;;;;;;;;;5055568;28;20033;-74
2022/08/15 06:50:33;;;;;;;16.30;6.47;;;;;;;;;;5065354;28;20379;-74
2022/08/15 06:53:25;;;;;;;16.52;6.20;;;;;;;;;;5073316;28;20033;-76
2022/08/15 06:55:54;;;;;;;22.42;7.20;;;;;;;;;;5036777;28;20245;-76
2022/08/15 06:58:24;;;;;;;19.42;6.55;;;;;;;;;;5056485;28;20036;-76
2022/08/15 07:00:56;;;;;;;14.25;7.57;;;;;;;;;;5058672;28;20036;-76
2022/08/15 07:03:41;;;;;;;14.23;6.93;;;;;;;;;;5057166;28;20029;-75
2022/08/15 07:06:09;;;;;;;16.80;7.95;;;;;;;;;;5057421;28;20032;-76
2022/08/15 07:08:54;;;;;;;14.98;8.00;;;;;;;;;;5039637;28;20504;-74
2022/08/15 07:11:27;;;;;;;25.77;8.10;;;;;;;;;;5057463;28;20029;-75
2022/08/15 07:14:06;;;;;;;21.58;7.90;;;;;;;;;;5057678;28;20017;-76
2022/08/15 07:16:44;;;;;;;17.35;7.38;;;;;;;;;;5059579;28;20037;-75
2022/08/15 07:19:11;;;;;;;18.40;7.30;;;;;;;;;;5059563;28;20056;-77
2022/08/15 07:21:37;;;;;;;12.07;7.85;;;;;;;;;;5040794;28;20060;-77
2022/08/15 07:24:06;;;;;;;16.83;7.60;;;;;;;;;;5058043;28;20744;-77
2022/08/15 07:26:38;;;;;;;11.70;7.57;;;;;;;;;;5058010;28;20013;-77
2022/08/15 07:29:10;;;;;;;26.15;7.82;;;;;;;;;;5059460;28;20520;-77
2022/08/15 07:31:37;;;;;;;20.38;7.95;;;;;;;;;;5060336;28;20552;-77
2022/08/15 07:34:18;;;;;;;23.20;8.80;;;;;;;;;;5062592;28;20032;-75
2022/08/15 07:37:10;;;;;;;15.55;7.85;;;;;;;;;;5065389;28;20037;-76
2022/08/15 07:39:39;;;;;;;19.15;7.55;;;;;;;;;;5062122;28;20398;-77
2022/08/15 07:42:19;;;;;;;19.38;7.80;;;;;;;;;;5065266;28;20092;-75
2022/08/15 07:44:53;;;;;;;23.83;7.93;;;;;;;;;;5045210;28;20032;-76
2022/08/15 07:47:22;;;;;;;20.52;8.25;;;;;;;;;;5060592;28;20108;-76
2022/08/15 07:49:58;;;;;;;19.80;7.82;;;;;;;;;;5057592;28;20025;-77
2022/08/15 07:52:24;;;;;;;15.50;7.20;;;;;;;;;;5057922;28;20094;-76
2022/08/15 07:54:57;;;;;;;15.43;8.35;;;;;;;;;;5056844;28;20029;-76
2022/08/15 07:57:26;;;;;;;14.23;7.35;;;;;;;;;;5037674;28;20073;-76
2022/08/15 08:00:10;;;;;;;14.52;7.95;;;;;;;;;;5038178;28;20033;-77
2022/08/15 08:02:49;;;;;;;15.25;7.82;;;;;;;;;;5059747;28;20025;-76
2022/08/15 08:05:15;;;;;;;18.83;8.13;;;;;;;;;;5058436;28;20363;-75
2022/08/15 08:07:46;;;;;;;16.63;7.63;;;;;;;;;;5057812;28;20056;-77
2022/08/15 08:10:12;;;;;;;16.65;7.40;;;;;;;;;;5056636;28;20035;-77
2022/08/15 08:12:47;;;;;;;15.32;7.57;;;;;;;;;;5056846;28;20448;-77
2022/08/15 08:15:17;;;;;;;12.27;7.70;;;;;;;;;;5037625;28;20397;-72
2022/08/15 08:17:43;;;;;;;11.68;7.63;;;;;;;;;;5055724;28;20017;-74
2022/08/15 08:20:32;;;;;;;12.70;7.55;;;;;;;;;;5055431;28;20057;-75
2022/08/15 08:23:01;;;;;;;21.85;7.57;;;;;;;;;;5054926;28;20116;-74
2022/08/15 08:25:30;;;;;;;14.48;7.57;;;;;;;;;;5058117;28;20016;-75
2022/08/15 08:28:06;;;;;;;15.52;7.32;;;;;;;;;;5061559;28;20057;-76
2022/08/15 08:30:37;;;;;;;12.57;7.13;;;;;;;;;;5056909;28;20559;-76
2022/08/15 08:33:09;;;;;;;13.57;7.40;;;;;;;;;;5057043;28;20021;-76
2022/08/15 08:35:45;;;;;;;13.35;7.55;;;;;;;;;;5037365;28;20032;-75
2022/08/15 08:38:11;;;;;;;10.45;7.00;;;;;;;;;;5057308;28;20017;-77
2022/08/15 08:43:32;;;;;;;;;;;;;;;;;;5058489;28;20095;-77
2022/08/15 08:46:06;;;;;;;16.80;7.10;;;;;;;;;;5058547;28;19909;-76
2022/08/15 08:48:47;;;;;;;13.35;7.80;;;;;;;;;;5055898;28;20111;-78
2022/08/15 08:51:24;;;;;;;19.15;7.95;;;;;;;;;;5057118;28;20021;-76
2022/08/15 08:53:54;;;;;;;11.95;7.00;;;;;;;;;;5037699;28;20035;-75
2022/08/15 08:56:23;;;;;;;14.65;7.60;;;;;;;;;;5060041;28;20493;-76
2022/08/15 08:58:56;;;;;;;17.70;7.75;;;;;;;;;;5057516;28;20028;-75
2022/08/15 09:01:24;;;;;;;10.18;7.07;;;;;;;;;;5056602;28;20537;-76
2022/08/15 09:03:52;;;;;;;15.35;7.78;;;;;;;;;;5057112;28;20029;-76
2022/08/15 09:06:28;;;;;;;19.02;7.95;;;;;;;;;;5057637;28;20032;-77
2022/08/15 09:09:07;;;;;;;24.58;17.23;;;;;;;;;;5063782;28;20437;-78
2022/08/15 09:11:33;;;;;;;14.77;6.70;;;;;;;;;;5041204;28;20021;-77
2022/08/15 09:14:02;;;;;;;14.43;7.30;;;;;;;;;;5060491;28;20021;-76
2022/08/15 09:16:33;;;;;;;15.63;7.85;;;;;;;;;;5062945;28;20032;-76
2022/08/15 09:19:14;;;;;;;19.30;7.32;;;;;;;;;;5054607;28;20105;-76
2022/08/15 09:21:42;;;;;;;15.75;6.90;;;;;;;;;;5054599;28;20681;-77
2022/08/15 09:24:09;;;;;;;13.38;7.15;;;;;;;;;;5056045;28;20537;-75
2022/08/15 09:26:35;;;;;;;13.23;6.75;;;;;;;;;;5036045;28;20036;-76
2022/08/15 09:29:10;;;;;;;23.52;8.18;;;;;;;;;;5056709;28;20021;-74
2022/08/15 09:31:37;;;;;;;14.85;7.57;;;;;;;;;;5056576;28;20104;-77
2022/08/15 09:34:08;;;;;;;14.43;7.55;;;;;;;;;;5055750;28;20029;-74
2022/08/15 09:36:55;;;;;;;21.88;7.90;;;;;;;;;;5055576;28;20551;-78
2022/08/15 09:39:27;;;;;;;11.80;7.38;;;;;;;;;;5057327;28;20028;-75
2022/08/15 09:42:03;;;;;;;12.60;7.88;;;;;;;;;;5057680;28;20078;-78
2022/08/15 09:44:38;;;;;;;13.43;7.63;;;;;;;;;;5058049;28;20041;-76
2022/08/15 09:47:19;;;;;;;20.00;8.05;;;;;;;;;;5057471;28;20020;-77
2022/08/15 09:50:06;;;;;;;16.20;8.43;;;;;;;;;;5055115;28;20032;-77
2022/08/15 09:52:35;;;;;;;18.35;8.00;;;;;;;;;;5037304;28;20532;-77
2022/08/15 09:55:16;;;;;;;15.80;7.43;;;;;;;;;;5038945;28;20029;-75
2022/08/15 09:57:46;;;;;;;11.70;8.10;;;;;;;;;;5054224;28;20370;-76
2022/08/15 10:00:15;;;;;;;15.57;7.55;;;;;;;;;;5055383;28;20033;-75
2022/08/15 10:02:41;;;;;;;17.20;7.93;;;;;;;;;;5054474;28;20486;-77
2022/08/15 10:05:16;;;;;;;13.40;7.20;;;;;;;;;;5053585;28;20028;-76
2022/08/15 10:07:48;;;;;;;18.10;8.18;;;;;;;;;;5054641;28;20543;-75
2022/08/15 10:10:18;;;;;;;13.10;8.45;;;;;;;;;;5055006;28;20048;-75
2022/08/15 10:13:03;;;;;;;20.15;7.63;;;;;;;;;;5063311;28;20493;-75
2022/08/15 10:15:35;;;;;;;18.38;8.05;;;;;;;;;;5053638;28;20025;-75
2022/08/15 10:18:05;;;;;;;16.42;8.30;;;;;;;;;;5054477;28;20028;-75
2022/08/15 10:20:31;;;;;;;13.98;7.65;;;;;;;;;;5054746;28;20020;-76
2022/08/15 10:23:00;;;;;;;21.27;7.88;;;;;;;;;;5053705;28;20029;-75
2022/08/15 10:25:37;;;;;;;14.90;7.70;;;;;;;;;;5053689;28;20057;-74
2022/08/15 10:28:06;;;;;;;36.47;7.95;;;;;;;;;;5056484;28;20032;-75
2022/08/15 10:30:34;;;;;;;19.98;8.57;;;;;;;;;;5036457;28;20055;-75
2022/08/15 10:33:01;;;;;;;16.20;7.22;;;;;;;;;;5053256;28;20561;-74
2022/08/15 10:35:40;;;;;;;19.92;9.60;;;;;;;;;;5035656;28;20029;-77
2022/08/15 10:38:09;;;;;;;22.33;7.97;;;;;;;;;;5058208;28;20596;-77
2022/08/15 10:40:52;;;;;;;12.73;7.60;;;;;;;;;;5056219;28;20024;-78
2022/08/15 10:43:18;;;;;;;14.27;7.53;;;;;;;;;;5059275;28;20025;-79
2022/08/15 10:46:08;;;;;;;17.10;7.70;;;;;;;;;;5037271;28;20429;-77
2022/08/15 10:48:53;;;;;;;19.48;8.07;;;;;;;;;;5051198;28;20119;-77
2022/08/15 10:51:31;;;;;;;16.13;8.48;;;;;;;;;;5050747;28;20060;-76
2022/08/15 10:54:16;;;;;;;12.73;7.90;;;;;;;;;;5052535;28;20144;-76
2022/08/15 10:56:42;;;;;;;15.20;7.63;;;;;;;;;;5057225;28;20063;-76
2022/08/15 10:59:28;;;;;;;13.77;7.72;;;;;;;;;;5057771;28;20033;-77
2022/08/15 11:02:05;;;;;;;14.40;7.78;;;;;;;;;;5056967;28;20023;-77
2022/08/15 11:04:35;;;;;;;11.85;7.80;;;;;;;;;;5057117;28;20104;-75
2022/08/15 11:07:03;;;;;;;22.55;7.70;;;;;;;;;;5037323;28;20036;-77
2022/08/15 11:09:29;;;;;;;15.02;7.53;;;;;;;;;;5051619;28;20025;-76
2022/08/15 11:11:57;;;;;;;15.20;7.38;;;;;;;;;;5072709;28;20059;-76
2022/08/15 11:14:27;;;;;;;12.35;7.00;;;;;;;;;;5057477;28;20036;-75
2022/08/15 11:16:54;;;;;;;16.10;6.90;;;;;;;;;;5035129;28;20021;-75
2022/08/15 11:19:33;;;;;;;15.35;7.80;;;;;;;;;;5055424;28;20033;-77
2022/08/15 11:22:03;;;;;;;11.43;7.18;;;;;;;;;;5058109;28;20025;-76
2022/08/15 11:24:33;;;;;;;15.73;7.10;;;;;;;;;;5056835;28;20025;-74
2022/08/15 11:27:14;;;;;;;14.25;6.68;;;;;;;;;;5054722;28;20505;-77
2022/08/15 11:29:41;;;;;;;20.05;7.35;;;;;;;;;;5054698;28;20136;-77
2022/08/15 11:32:07;;;;;;;16.52;7.43;;;;;;;;;;5058193;28;20073;-80
2022/08/15 11:34:35;;;;;;;13.68;8.25;;;;;;;;;;5055295;28;20036;-77
2022/08/15 11:37:09;;;;;;;14.98;9.18;;;;;;;;;;5056696;28;20045;-77
2022/08/15 11:39:38;;;;;;;14.02;7.50;;;;;;;;;;5035527;28;20083;-75
2022/08/15 11:42:06;;;;;;;14.20;7.35;;;;;;;;;;5053156;28;20028;-75
2022/08/15 11:44:45;;;;;;;14.93;7.30;;;;;;;;;;5052347;28;20032;-75
2022/08/15 11:47:13;;;;;;;13.00;7.03;;;;;;;;;;5055737;28;20056;-75
2022/08/15 11:49:45;;;;;;;14.38;7.93;;;;;;;;;;5056120;28;20067;-75
2022/08/15 11:52:11;;;;;;;12.68;7.28;;;;;;;;;;5055952;28;20033;-75
2022/08/15 11:54:37;;;;;;;14.63;7.45;;;;;;;;;;5056751;28;20029;-76
2022/08/15 11:57:07;;;;;;;15.60;8.20;;;;;;;;;;5057407;28;20032;-78
2022/08/15 11:59:35;;;;;;;20.13;8.10;;;;;;;;;;5058779;28;20036;-76
2022/08/15 12:02:10;;;;;;;13.57;7.22;;;;;;;;;;5057565;28;20021;-75
2022/08/15 12:04:38;;;;;;;11.05;7.00;;;;;;;;;;5057745;28;20100;-76
2022/08/15 12:07:30;;;;;;;14.57;6.40;;;;;;;;;;5056621;28;20071;-76
2022/08/15 12:10:02;;;;;;;14.38;7.03;;;;;;;;;;5053890;28;20037;-76
2022/08/15 12:12:42;;;;;;;10.95;7.55;;;;;;;;;;5055303;28;20391;-77
2022/08/15 12:15:11;;;;;;;11.60;8.07;;;;;;;;;;5057240;28;20048;-75
2022/08/15 12:17:37;;;;;;;12.80;7.40;;;;;;;;;;5061599;28;20128;-75
2022/08/15 12:20:04;;;;;;;11.68;6.70;;;;;;;;;;5045556;28;20078;-75
2022/08/15 12:22:35;;;;;;;17.02;7.30;;;;;;;;;;5060956;28;20537;-77
2022/08/15 12:25:01;;;;;;;12.13;7.32;;;;;;;;;;5054743;28;20061;-76
2022/08/15 12:27:28;;;;;;;11.07;6.55;;;;;;;;;;5036753;28;20032;-77
2022/08/15 12:29:54;;;;;;;16.23;7.70;;;;;;;;;;5055040;28;20025;-77
2022/08/15 12:32:20;;;;;;;15.00;6.45;;;;;;;;;;5036502;28;20021;-77
2022/08/15 12:34:50;;;;;;;17.67;7.20;;;;;;;;;;5054269;28;20025;-76
2022/08/15 12:37:19;;;;;;;16.58;6.20;;;;;;;;;;5054298;28;20489;-77
2022/08/15 12:39:49;;;;;;;13.25;8.23;;;;;;;;;;5055421;28;20025;-77
2022/08/15 12:42:21;;;;;;;26.08;15.15;;;;;;;;;;5055322;28;20063;-76
2022/08/15 12:44:48;;;;;;;14.75;7.30;;;;;;;;;;5054804;28;20378;-77
2022/08/15 12:47:14;;;;;;;13.95;6.63;;;;;;;;;;5056128;28;20025;-77
2022/08/15 12:49:40;;;;;;;10.98;6.20;;;;;;;;;;5038595;28;20073;-76
2022/08/15 12:52:06;;;;;;;10.75;6.45;;;;;;;;;;5056464;28;20044;-76
2022/08/15 12:54:32;;;;;;;13.40;6.50;;;;;;;;;;5055423;28;20095;-77
2022/08/15 12:56:58;;;;;;;13.85;6.55;;;;;;;;;;5055227;28;20025;-76
2022/08/15 12:59:24;;;;;;;22.38;6.82;;;;;;;;;;5055996;28;20565;-76
2022/08/15 13:01:50;;;;;;;17.80;6.72;;;;;;;;;;5056327;28;20028;-75
2022/08/15 13:04:16;;;;;;;10.00;6.70;;;;;;;;;;5054986;28;20359;-76
2022/08/15 13:06:48;;;;;;;13.55;6.63;;;;;;;;;;5037284;28;20078;-76
2022/08/15 13:09:15;;;;;;;14.88;6.95;;;;;;;;;;5054865;28;20029;-77
2022/08/15 13:11:42;;;;;;;10.43;6.50;;;;;;;;;;5054521;28;20033;-76
2022/08/15 13:14:09;;;;;;;16.90;6.80;;;;;;;;;;5055705;28;20029;-77
2022/08/15 13:16:35;;;;;;;15.65;7.05;;;;;;;;;;5036913;28;20021;-76
2022/08/15 13:19:06;;;;;;;21.00;7.10;;;;;;;;;;5037938;28;20028;-77
2022/08/15 13:24:17;;;;;;;14.55;6.28;;;;;;;;;;5054816;28;20186;-76
2022/08/15 13:26:43;;;;;;;17.88;6.05;;;;;;;;;;5054178;28;20029;-77
2022/08/15 13:29:10;;;;;;;14.73;7.25;;;;;;;;;;5054836;28;20370;-77
2022/08/15 13:31:36;;;;;;;10.43;6.30;;;;;;;;;;5036899;28;20029;-77
2022/08/15 13:34:03;;;;;;;20.95;7.47;;;;;;;;;;5055305;28;20103;-78
2022/08/15 13:36:31;;;;;;;14.00;7.15;;;;;;;;;;5037241;28;20244;-76
2022/08/15 13:38:58;;;;;;;14.95;7.20;;;;;;;;;;5055408;28;20017;-77
2022/08/15 13:41:25;;;;;;;17.00;7.60;;;;;;;;;;5055309;28;20055;-77
2022/08/15 13:43:51;;;;;;;13.35;6.85;;;;;;;;;;5053148;28;20056;-76
2022/08/15 13:46:19;;;;;;;14.50;7.15;;;;;;;;;;5035029;28;20020;-76
2022/08/15 13:48:47;;;;;;;11.60;6.90;;;;;;;;;;5053729;28;20032;-77
2022/08/15 13:51:19;;;;;;;13.05;6.53;;;;;;;;;;5053776;28;20032;-77
2022/08/15 13:53:45;;;;;;;14.68;6.75;;;;;;;;;;5053368;28;20024;-76
2022/08/15 13:56:11;;;;;;;11.50;6.13;;;;;;;;;;5053406;28;20029;-78
2022/08/15 13:58:37;;;;;;;13.57;6.18;;;;;;;;;;5054903;28;20028;-77
2022/08/15 14:01:03;;;;;;;13.43;6.40;;;;;;;;;;5053382;28;20478;-77
2022/08/15 14:03:30;;;;;;;18.70;6.32;;;;;;;;;;5053372;28;20625;-76
2022/08/15 14:05:57;;;;;;;10.73;6.45;;;;;;;;;;5053812;28;20465;-76
2022/08/15 14:08:23;;;;;;;13.43;6.03;;;;;;;;;;5055523;28;20029;-78
2022/08/15 14:10:51;;;;;;;7.70;6.10;;;;;;;;;;5055021;28;20378;-77
2022/08/15 14:13:17;;;;;;;11.70;6.60;;;;;;;;;;5054602;28;20021;-77
2022/08/15 14:15:43;;;;;;;11.68;6.10;;;;;;;;;;5054743;28;20047;-77
2022/08/15 14:18:10;;;;;;;10.38;5.88;;;;;;;;;;5036709;28;20478;-76
2022/08/15 14:20:37;;;;;;;12.52;5.53;;;;;;;;;;5053745;28;20024;-77
2022/08/15 14:23:03;;;;;;;16.13;6.00;;;;;;;;;;5054267;28;20025;-77
2022/08/15 14:25:29;;;;;;;13.52;6.72;;;;;;;;;;5054893;28;20021;-75
2022/08/15 14:27:55;;;;;;;14.45;7.20;;;;;;;;;;5058625;28;20028;-75
2022/08/15 14:30:22;;;;;;;11.93;7.03;;;;;;;;;;5058962;28;20039;-76
2022/08/15 14:32:49;;;;;;;13.48;8.05;;;;;;;;;;5054264;28;20036;-77
2022/08/15 14:35:15;;;;;;;10.27;7.30;;;;;;;;;;5053663;28;20029;-76
2022/08/15 14:37:43;;;;;;;19.77;8.15;;;;;;;;;;5052579;28;20086;-77
2022/08/15 14:40:10;;;;;;;19.23;8.82;;;;;;;;;;5034762;28;20029;-77
2022/08/15 14:42:37;;;;;;;9.82;7.60;;;;;;;;;;5052404;28;20043;-77
2022/08/15 14:45:04;;;;;;;12.90;8.05;;;;;;;;;;5052803;28;20025;-77
2022/08/15 14:47:30;;;;;;;10.38;8.05;;;;;;;;;;5053247;28;20021;-76
2022/08/15 14:49:56;;;;;;;20.80;8.32;;;;;;;;;;5055055;28;20029;-80
2022/08/15 14:52:23;;;;;;;16.48;8.43;;;;;;;;;;5037443;28;20052;-75
2022/08/15 14:54:51;;;;;;;16.65;8.60;;;;;;;;;;5052674;28;20031;-76